読者です 読者をやめる 読者になる 読者になる

今朝の成田(2017/04/21)

CPA524/B-HNI(B773)

JJP12/JA08JJ(A320)

ANA832/JA617A(B763)

VNL100/JA03VA(A320)

CPA006/B-LJC(B748)

JJP40/JA18JJ(A320)

ANA814/JA621A(B763) with winglet

THA640/HS-TUA(A388)

ANA818/JA815A(B788)

ANA179.JA827A(B788)

FDX5392/N852FD(B77L)

JAL724/JA868J(B789)

JAL740/JA836J(B788)

AMX058/N967AM(B788)

JAL752/JA838J(B788)

JAL726/JA861J(B789)

FDX31/N882FD(B77L)

PAC240/N643GT(B763) with winglet

MAS88/9M-MTH(A333)

*ANA9371/JA878A(B788)

VNL300/JA04VA(A320)

HVN310/VN-A865(B789)

*SJO621/JA01GR(B738)

ANA8522/JA8286(B763)

SIA638/9V-SWG(B77W)

NCA187/JA05KZ(B744)

FDX15/N887FD(B77L)

TAX600/HS-XTC(A333)

PAC213/N498MC(B744)

THA642/HS-TBA(A333)

RJAA 202100Z 03003KT 9999 FEW015 SCT025 BKN110 13/11 Q1009 NOSIG RMK 1CU015 3SC025 7AC110 A2982

RJAA 202200Z 01004KT 9999 FEW015 BKN110 14/11 Q1010 NOSIG RMK 1CU015 7AC110 A2983

今朝の成田は曇っているようです。